Mizpah, Minnesota
Current Conditions -  °F | °C
As of 10:34 PM on Wednesday 22 Oct 2014 (Local Time) from KVWU Reporting Station
Moderate Rain Moderate Rain  
Wind Chill: 52°   Ceiling: 4700
Heat Index: 52°   Visibility: 10mi
Dew Point: 46°   Wind: 0mph
Humidity: 82%   Direction: NA
Pressure: 29.9"   Gusts: NA
Location:  47.92°N, 94.2°W
Report Text: KVWU 230334Z AUTO 00000KT 10SM RA SCT039 BKN047 OVC080 11/08 A2990 RMK AO2
Loading
Personal Weather Stations






























Interactive Weather Map
Tropical Storm Tracking
New forecast layout! Learn more

10-Day Weather Forecast

Advertisements
Track Severe Weather on mobile